Terminal Aerodrome Forecast
Issued by NWS

Home | Current Version | Previous Version | Text Only | Print | Product List | Glossary Off
Versions: 1 2 3 4 5 6 7 8 9 10 11 12 13 14 15 16 17 18 19 20 21 22 23 24 25 26 27 28 29 30 31 32

000
FTUS43 KLOT 251100
TAFMDW
TAF
KMDW 251128Z 2512/2612 24012KT P6SM BKN015 OVC025
     FM251600 22013G21KT P6SM BKN020
     FM251900 20014G19KT P6SM FEW025 BKN200
     FM260000 19012KT P6SM BKN200=

USA.gov is the U.S. government's official web portal to all federal, state and local government web resources and services.